createdAt,value
2019-01-18T00:00:42.602Z,11.80
2019-01-18T00:03:11.914Z,10.50
2019-01-18T00:05:41.152Z,10.23
2019-01-18T00:08:10.389Z,9.37
2019-01-18T00:10:39.656Z,8.70
2019-01-18T00:13:08.895Z,9.03
2019-01-18T00:15:39.778Z,8.80
2019-01-18T00:18:08.998Z,8.50
2019-01-18T00:20:38.251Z,9.10
2019-01-18T00:23:07.657Z,8.30
2019-01-18T00:25:36.896Z,7.80
2019-01-18T00:28:06.201Z,8.33
2019-01-18T00:30:35.463Z,7.30
2019-01-18T00:33:04.940Z,7.40
2019-01-18T00:35:34.191Z,7.93
2019-01-18T00:38:03.468Z,7.80
2019-01-18T00:40:32.763Z,6.43
2019-01-18T00:43:02.034Z,6.57
2019-01-18T00:45:31.332Z,7.10
2019-01-18T00:48:03.078Z,6.70
2019-01-18T00:50:32.319Z,6.80
2019-01-18T00:53:01.551Z,6.00
2019-01-18T00:55:30.798Z,8.00
2019-01-18T00:58:00.039Z,6.77
2019-01-18T01:00:29.808Z,6.40
2019-01-18T01:02:59.043Z,6.40
2019-01-18T01:05:28.539Z,6.40
2019-01-18T01:07:57.784Z,6.87
2019-01-18T01:10:27.095Z,6.53
2019-01-18T01:12:56.342Z,6.70
2019-01-18T01:15:25.646Z,7.03
2019-01-18T01:17:56.609Z,6.00
2019-01-18T01:20:25.939Z,6.60
2019-01-18T01:22:55.227Z,5.67
2019-01-18T01:25:24.717Z,6.30
2019-01-18T01:27:54.045Z,6.90
2019-01-18T01:30:24.778Z,7.07
2019-01-18T01:32:54.741Z,6.50
2019-01-18T01:35:24.251Z,6.50
2019-01-18T01:37:53.627Z,7.17
2019-01-18T01:40:26.550Z,7.57
2019-01-18T01:42:55.962Z,7.40
2019-01-18T01:45:25.462Z,8.20
2019-01-18T01:47:54.893Z,7.73
2019-01-18T01:50:25.460Z,7.97
2019-01-18T01:52:55.014Z,7.33
2019-01-18T01:55:24.362Z,7.03
2019-01-18T01:57:53.668Z,8.20
2019-01-18T02:00:24.838Z,7.60
2019-01-18T02:02:54.226Z,7.10
2019-01-18T02:05:23.686Z,6.90
2019-01-18T02:07:53.103Z,6.80
2019-01-18T02:10:22.508Z,7.23
2019-01-18T02:12:51.818Z,7.37
2019-01-18T02:15:25.561Z,7.57
2019-01-18T02:17:55.228Z,7.77
2019-01-18T02:20:24.642Z,8.53
2019-01-18T02:22:54.214Z,8.07
2019-01-18T02:25:23.523Z,7.03
2019-01-18T02:27:52.778Z,6.20
2019-01-18T02:30:24.912Z,6.70
2019-01-18T02:32:54.276Z,6.00
2019-01-18T02:35:23.659Z,6.10
2019-01-18T02:37:52.981Z,5.10
2019-01-18T02:40:22.286Z,4.40
2019-01-18T02:42:51.565Z,4.17
2019-01-18T02:45:22.804Z,4.10
2019-01-18T02:47:52.160Z,4.50
2019-01-18T02:50:21.463Z,4.17
2019-01-18T02:52:50.776Z,3.70
2019-01-18T02:55:20.050Z,3.93
2019-01-18T02:57:49.365Z,3.50
2019-01-18T03:00:22.815Z,3.30
2019-01-18T03:02:52.235Z,3.33
2019-01-18T03:05:23.880Z,3.27
2019-01-18T03:07:53.261Z,3.73
2019-01-18T03:10:25.123Z,4.00
2019-01-18T03:12:54.543Z,3.53
2019-01-18T03:15:23.767Z,3.40
2019-01-18T03:17:53.135Z,4.60
2019-01-18T03:20:22.581Z,4.53
2019-01-18T03:22:51.828Z,3.23
2019-01-18T03:25:23.322Z,2.93
2019-01-18T03:27:52.775Z,3.90
2019-01-18T03:30:22.072Z,2.97
2019-01-18T03:32:51.407Z,3.63
2019-01-18T03:35:22.171Z,3.20
2019-01-18T03:37:52.233Z,3.70
2019-01-18T03:40:21.820Z,3.87
2019-01-18T03:42:51.265Z,3.73
2019-01-18T03:45:20.881Z,4.77
2019-01-18T03:47:50.198Z,4.83
2019-01-18T03:50:21.557Z,4.83
2019-01-18T03:52:50.936Z,5.70
2019-01-18T03:55:20.474Z,4.80
2019-01-18T03:57:49.856Z,5.60
2019-01-18T04:00:26.306Z,3.93
2019-01-18T04:02:56.074Z,5.60
2019-01-18T04:05:25.485Z,4.87
2019-01-18T04:07:54.859Z,4.43
2019-01-18T04:10:24.184Z,4.87
2019-01-18T04:12:53.436Z,4.20
2019-01-18T04:15:24.238Z,5.43
2019-01-18T04:17:53.618Z,4.70
2019-01-18T04:20:23.503Z,4.30
2019-01-18T04:22:52.872Z,4.70
2019-01-18T04:25:23.845Z,5.10
2019-01-18T04:27:53.090Z,4.20
2019-01-18T04:30:23.267Z,4.90
2019-01-18T04:32:52.514Z,5.03
2019-01-18T04:35:21.970Z,4.23
2019-01-18T04:37:51.372Z,5.27
2019-01-18T04:40:22.686Z,5.80
2019-01-18T04:42:52.009Z,5.67
2019-01-18T04:45:21.681Z,5.70
2019-01-18T04:47:51.117Z,7.00
2019-01-18T04:50:22.079Z,6.10
2019-01-18T04:52:51.436Z,6.87
2019-01-18T04:55:20.762Z,5.90
2019-01-18T04:57:50.140Z,6.03
2019-01-18T05:00:25.307Z,6.50
2019-01-18T05:02:54.680Z,7.30
2019-01-18T05:05:24.098Z,7.60
2019-01-18T05:07:53.415Z,7.33
2019-01-18T05:10:25.364Z,6.53
2019-01-18T05:12:54.740Z,7.63
2019-01-18T05:15:28.858Z,6.70
2019-01-18T05:18:01.258Z,8.57
2019-01-18T05:20:30.566Z,7.60
2019-01-18T05:22:59.812Z,7.30
2019-01-18T05:25:29.045Z,7.77
2019-01-18T05:27:58.359Z,7.27
2019-01-18T05:30:30.032Z,8.57
2019-01-18T05:32:59.427Z,8.20
2019-01-18T05:35:28.871Z,8.03
2019-01-18T05:37:59.943Z,8.53
2019-01-18T05:40:29.258Z,8.87
2019-01-18T05:42:58.624Z,9.43
2019-01-18T05:45:27.955Z,8.00
2019-01-18T05:47:57.207Z,9.10
2019-01-18T05:50:27.987Z,9.37
2019-01-18T05:52:57.533Z,9.07
2019-01-18T05:55:26.764Z,10.13
2019-01-18T05:57:56.075Z,9.67
2019-01-18T06:00:41.267Z,10.73
2019-01-18T06:03:10.542Z,10.13
2019-01-18T06:05:41.405Z,10.23
2019-01-18T06:08:10.735Z,11.67
2019-01-18T06:10:40.075Z,11.10
2019-01-18T06:13:09.502Z,10.20
2019-01-18T06:15:40.390Z,11.50
2019-01-18T06:18:09.908Z,12.10
2019-01-18T06:20:41.569Z,12.50
2019-01-18T06:23:10.804Z,13.30
2019-01-18T06:25:40.150Z,12.90
2019-01-18T06:28:09.527Z,13.30
2019-01-18T06:30:38.842Z,11.97
2019-01-18T06:33:08.084Z,12.47
2019-01-18T06:35:37.413Z,13.07
2019-01-18T06:38:06.728Z,10.97
2019-01-18T06:40:36.046Z,12.50
2019-01-18T06:43:05.340Z,11.80
2019-01-18T06:45:34.713Z,12.13
2019-01-18T06:48:04.379Z,11.17
2019-01-18T06:50:33.627Z,13.43
2019-01-18T06:53:02.983Z,12.13
2019-01-18T06:55:32.229Z,12.50
2019-01-18T06:58:01.455Z,13.30
2019-01-18T07:00:31.772Z,13.03
2019-01-18T07:03:01.153Z,11.90
2019-01-18T07:05:30.460Z,14.37
2019-01-18T07:07:59.873Z,13.83
2019-01-18T07:10:29.260Z,13.93
2019-01-18T07:12:58.589Z,14.37
2019-01-18T07:15:27.983Z,12.80
2019-01-18T07:17:57.282Z,13.90
2019-01-18T07:20:26.591Z,14.03
2019-01-18T07:22:55.885Z,14.00
2019-01-18T07:25:27.204Z,14.07
2019-01-18T07:27:56.632Z,12.70
2019-01-18T07:30:28.581Z,12.23
2019-01-18T07:32:57.914Z,13.13
2019-01-18T07:35:27.239Z,11.50
2019-01-18T07:37:56.570Z,11.67
2019-01-18T07:40:26.214Z,11.67
2019-01-18T07:42:55.554Z,12.60
2019-01-18T07:45:31.417Z,11.60
2019-01-18T07:48:00.667Z,13.67
2019-01-18T07:50:30.035Z,12.27
2019-01-18T07:52:59.473Z,13.60
2019-01-18T07:55:28.712Z,11.83
2019-01-18T07:57:58.049Z,11.73
2019-01-18T08:00:29.030Z,13.77
2019-01-18T08:02:58.351Z,12.70
2019-01-18T08:05:28.530Z,14.53
2019-01-18T08:07:57.995Z,13.90
2019-01-18T08:10:27.276Z,15.33
2019-01-18T08:12:56.748Z,15.77
2019-01-18T08:15:27.429Z,15.30
2019-01-18T08:17:57.061Z,14.57
2019-01-18T08:20:28.108Z,14.60
2019-01-18T08:22:57.781Z,14.80
2019-01-18T08:25:27.107Z,15.00
2019-01-18T08:27:56.492Z,16.17
2019-01-18T08:30:27.583Z,15.50
2019-01-18T08:32:56.891Z,15.00
2019-01-18T08:35:27.167Z,16.20
2019-01-18T08:37:56.513Z,16.43
2019-01-18T08:40:30.824Z,16.30
2019-01-18T08:43:00.140Z,16.17
2019-01-18T08:45:38.608Z,17.70
2019-01-18T08:48:08.790Z,18.00
2019-01-18T08:50:38.468Z,18.73
2019-01-18T08:53:07.796Z,19.83
2019-01-18T08:55:37.094Z,18.10
2019-01-18T08:58:06.472Z,18.87
2019-01-18T09:00:35.918Z,19.33
2019-01-18T09:03:05.366Z,16.60
2019-01-18T09:05:34.606Z,17.77
2019-01-18T09:08:03.986Z,17.50
2019-01-18T09:10:35.390Z,17.27
2019-01-18T09:13:04.779Z,16.83
2019-01-18T09:15:34.086Z,17.70
2019-01-18T09:18:03.528Z,16.67
2019-01-18T09:20:32.843Z,16.50
2019-01-18T09:23:02.192Z,17.70
2019-01-18T09:25:31.499Z,16.17
2019-01-18T09:28:00.811Z,17.10
2019-01-18T09:30:34.423Z,17.20
2019-01-18T09:33:05.034Z,15.63
2019-01-18T09:35:34.949Z,16.60
2019-01-18T09:38:06.342Z,15.83
2019-01-18T09:40:35.807Z,15.47
2019-01-18T09:43:05.192Z,15.13
2019-01-18T09:45:34.518Z,16.03
2019-01-18T09:48:04.302Z,14.23
2019-01-18T09:50:33.931Z,14.70
2019-01-18T09:53:05.784Z,14.37
2019-01-18T09:55:35.595Z,14.70
2019-01-18T09:58:05.085Z,13.73
2019-01-18T10:00:36.532Z,14.17
2019-01-18T10:03:05.848Z,13.77
2019-01-18T10:05:35.164Z,14.87
2019-01-18T10:08:04.655Z,14.13
2019-01-18T10:10:34.363Z,13.77
2019-01-18T10:13:03.937Z,14.73
2019-01-18T10:15:35.869Z,14.23
2019-01-18T10:18:05.949Z,15.40
2019-01-18T10:20:35.263Z,14.40
2019-01-18T10:23:05.079Z,15.37
2019-01-18T10:25:34.315Z,14.60
2019-01-18T10:28:03.681Z,16.33
2019-01-18T10:30:34.103Z,14.40
2019-01-18T10:33:03.586Z,12.80
2019-01-18T10:35:32.959Z,13.60
2019-01-18T10:38:02.386Z,11.63
2019-01-18T10:40:31.635Z,11.70
2019-01-18T10:43:00.993Z,11.30
2019-01-18T10:45:30.299Z,13.03
2019-01-18T10:48:00.057Z,12.93
2019-01-18T10:50:31.327Z,12.83
2019-01-18T10:53:00.850Z,12.70
2019-01-18T10:55:30.112Z,12.10
2019-01-18T10:57:59.420Z,11.80
2019-01-18T11:00:31.069Z,12.70
2019-01-18T11:03:00.388Z,11.40
2019-01-18T11:05:29.710Z,11.30
2019-01-18T11:07:59.052Z,10.73
2019-01-18T11:10:28.376Z,11.70
2019-01-18T11:12:57.709Z,11.40
2019-01-18T11:15:28.697Z,11.37
2019-01-18T11:17:58.115Z,11.43
2019-01-18T11:20:36.515Z,10.40
2019-01-18T11:23:05.867Z,8.57
2019-01-18T11:25:35.379Z,10.27
2019-01-18T11:28:04.801Z,9.93
2019-01-18T11:30:34.195Z,9.90
2019-01-18T11:33:03.429Z,10.30
2019-01-18T11:35:32.781Z,10.10
2019-01-18T11:38:02.059Z,9.33
2019-01-18T11:40:31.335Z,8.80
2019-01-18T11:43:00.687Z,9.47
2019-01-18T11:45:29.993Z,10.03
2019-01-18T11:47:59.271Z,10.00
2019-01-18T11:50:29.057Z,9.93
2019-01-18T11:52:58.388Z,9.70
2019-01-18T11:55:27.694Z,7.87
2019-01-18T11:57:57.031Z,9.17
2019-01-18T12:00:28.918Z,8.80
2019-01-18T12:02:58.202Z,8.20
2019-01-18T12:05:27.508Z,8.90
2019-01-18T12:07:56.864Z,8.20
2019-01-18T12:10:28.342Z,7.57
2019-01-18T12:12:57.810Z,7.40
2019-01-18T12:15:27.363Z,6.60
2019-01-18T12:17:56.649Z,6.93
2019-01-18T12:20:28.723Z,6.77
2019-01-18T12:22:58.218Z,6.63
2019-01-18T12:25:27.564Z,5.97
2019-01-18T12:27:56.879Z,6.43
2019-01-18T12:30:28.847Z,5.90
2019-01-18T12:32:58.226Z,5.70
2019-01-18T12:35:27.640Z,5.57
2019-01-18T12:37:56.959Z,6.40
2019-01-18T12:40:26.255Z,6.53
2019-01-18T12:42:55.639Z,6.30
2019-01-18T12:45:25.131Z,5.50
2019-01-18T12:47:54.548Z,4.60
2019-01-18T12:50:29.642Z,5.10
2019-01-18T12:52:58.976Z,5.53
2019-01-18T12:55:28.271Z,5.23
2019-01-18T12:57:57.685Z,5.20
2019-01-18T13:00:28.398Z,5.10
2019-01-18T13:02:58.086Z,3.97
2019-01-18T13:05:32.989Z,3.67
2019-01-18T13:08:02.329Z,3.50
2019-01-18T13:10:31.555Z,3.47
2019-01-18T13:13:00.795Z,3.80
2019-01-18T13:15:33.465Z,3.73
2019-01-18T13:18:02.767Z,3.90
2019-01-18T13:20:32.159Z,4.00
2019-01-18T13:23:01.436Z,3.43
2019-01-18T13:25:30.687Z,4.10
2019-01-18T13:28:00.078Z,3.87
2019-01-18T13:30:29.350Z,3.30
2019-01-18T13:32:58.689Z,3.73
2019-01-18T13:35:27.992Z,4.53
2019-01-18T13:37:57.311Z,3.83
2019-01-18T13:40:26.647Z,3.20
2019-01-18T13:42:55.949Z,4.30
2019-01-18T13:45:25.343Z,3.40
2019-01-18T13:47:54.727Z,3.87
2019-01-18T13:50:24.119Z,4.50
2019-01-18T13:52:53.352Z,3.50
2019-01-18T13:55:27.216Z,3.60
2019-01-18T13:57:56.515Z,3.40
2019-01-18T14:00:25.927Z,3.50
2019-01-18T14:02:55.226Z,3.60
2019-01-18T14:05:24.630Z,3.33
2019-01-18T14:07:53.879Z,3.90
2019-01-18T14:10:28.683Z,3.40
2019-01-18T14:12:58.187Z,3.63
2019-01-18T14:15:27.556Z,3.43
2019-01-18T14:17:56.865Z,3.50
2019-01-18T14:20:31.669Z,3.93
2019-01-18T14:23:01.027Z,3.40
2019-01-18T14:25:30.359Z,3.80
2019-01-18T14:27:59.650Z,3.90
2019-01-18T14:30:29.296Z,3.33
2019-01-18T14:32:58.544Z,3.80
2019-01-18T14:35:28.652Z,3.10
2019-01-18T14:37:57.891Z,3.10
2019-01-18T14:40:27.139Z,3.90
2019-01-18T14:42:56.381Z,3.30
2019-01-18T14:45:34.323Z,3.60
2019-01-18T14:48:03.631Z,3.40
2019-01-18T14:50:33.040Z,3.30
2019-01-18T14:53:02.421Z,3.13
2019-01-18T14:55:31.742Z,4.43
2019-01-18T14:58:01.178Z,3.57
2019-01-18T15:00:34.133Z,3.50
2019-01-18T15:03:04.573Z,3.00
2019-01-18T15:05:34.091Z,3.03
2019-01-18T15:08:03.468Z,2.80
2019-01-18T15:10:32.715Z,4.80
2019-01-18T15:13:04.800Z,4.37
2019-01-18T15:15:34.176Z,4.73
2019-01-18T15:18:03.495Z,4.10
2019-01-18T15:20:33.392Z,3.80
2019-01-18T15:23:02.855Z,4.00
2019-01-18T15:25:32.251Z,4.00
2019-01-18T15:28:01.693Z,2.77
2019-01-18T15:30:32.775Z,3.10
2019-01-18T15:33:02.080Z,2.60
2019-01-18T15:35:34.037Z,2.87
2019-01-18T15:38:03.880Z,2.47
2019-01-18T15:40:36.135Z,2.57
2019-01-18T15:43:05.722Z,2.37
2019-01-18T15:45:35.018Z,3.00
2019-01-18T15:48:04.816Z,2.90
2019-01-18T15:50:36.794Z,2.90
2019-01-18T15:53:06.597Z,3.00
2019-01-18T15:55:36.503Z,2.77
2019-01-18T15:58:06.474Z,3.00
2019-01-18T16:00:38.366Z,3.40
2019-01-18T16:03:08.081Z,2.93
2019-01-18T16:05:37.495Z,3.10
2019-01-18T16:08:07.481Z,3.53
2019-01-18T16:10:36.816Z,2.90
2019-01-18T16:13:06.403Z,3.63
2019-01-18T16:15:44.494Z,3.43
2019-01-18T16:18:16.893Z,5.10
2019-01-18T16:20:46.156Z,4.90
2019-01-18T16:23:15.537Z,5.87
2019-01-18T16:25:44.847Z,5.57
2019-01-18T16:28:14.339Z,5.30
2019-01-18T16:30:43.667Z,5.23
2019-01-18T16:33:12.933Z,5.23
2019-01-18T16:35:42.241Z,5.23
2019-01-18T16:38:12.754Z,5.07
2019-01-18T16:40:42.168Z,6.10
2019-01-18T16:43:20.352Z,5.27
2019-01-18T16:45:49.760Z,5.83
2019-01-18T16:48:19.085Z,3.90
2019-01-18T16:50:48.416Z,7.07
2019-01-18T16:53:17.737Z,6.00
2019-01-18T16:55:47.078Z,6.40
2019-01-18T16:58:16.392Z,6.60
2019-01-18T17:00:52.453Z,6.30
2019-01-18T17:03:21.772Z,6.00
2019-01-18T17:05:51.014Z,5.77
2019-01-18T17:08:20.465Z,6.13
2019-01-18T17:10:49.794Z,5.50
2019-01-18T17:13:19.561Z,5.00
2019-01-18T17:15:48.878Z,7.10
2019-01-18T17:18:18.463Z,7.53
2019-01-18T17:20:48.571Z,8.57
2019-01-18T17:23:17.900Z,9.50
2019-01-18T17:25:47.189Z,7.83
2019-01-18T17:28:16.429Z,8.70
2019-01-18T17:30:45.701Z,8.57
2019-01-18T17:33:14.944Z,9.17
2019-01-18T17:35:50.018Z,8.30
2019-01-18T17:38:27.927Z,7.67
2019-01-18T17:41:06.078Z,7.90
2019-01-18T17:43:54.664Z,8.07
2019-01-18T17:46:38.848Z,7.23
2019-01-18T17:49:13.963Z,8.60
2019-01-18T17:52:01.183Z,8.27
2019-01-18T17:54:42.022Z,10.90
2019-01-18T17:57:23.022Z,8.40
2019-01-18T17:59:58.364Z,8.13
2019-01-18T18:02:39.653Z,13.23
2019-01-18T18:05:23.666Z,11.47
2019-01-18T18:07:58.711Z,12.10
2019-01-18T18:11:05.841Z,11.50
2019-01-18T18:13:47.203Z,10.53
2019-01-18T18:16:35.681Z,11.17
2019-01-18T18:19:19.758Z,11.73
2019-01-18T18:22:14.296Z,11.57
2019-01-18T18:24:49.573Z,10.60
2019-01-18T18:27:38.501Z,13.20
2019-01-18T18:30:22.847Z,10.27
2019-01-18T18:32:55.204Z,8.90
2019-01-18T18:35:48.514Z,9.40
2019-01-18T18:38:29.512Z,9.93
2019-01-18T18:41:10.020Z,10.50
2019-01-18T18:43:48.239Z,10.63
2019-01-18T18:46:41.251Z,10.80
2019-01-18T18:49:25.328Z,12.70
2019-01-18T18:52:03.396Z,10.97
2019-01-18T18:54:35.791Z,10.77
2019-01-18T18:57:10.864Z,9.57
2019-01-18T18:59:55.095Z,9.87
2019-01-18T19:02:48.231Z,10.30
2019-01-18T19:05:42.782Z,10.23
2019-01-18T19:08:31.307Z,8.90
2019-01-18T19:11:27.677Z,9.60
2019-01-18T19:14:02.720Z,10.20
2019-01-18T19:16:53.073Z,9.80
2019-01-18T19:19:44.657Z,10.20
2019-01-18T19:22:31.677Z,9.73
2019-01-18T19:25:12.775Z,10.87
2019-01-18T19:28:09.167Z,12.20
2019-01-18T19:30:59.192Z,10.67
2019-01-18T19:33:31.516Z,10.90
2019-01-18T19:36:32.107Z,12.60
2019-01-18T19:39:10.330Z,11.87
2019-01-18T19:41:42.664Z,12.83
2019-01-18T19:44:23.847Z,12.93
2019-01-18T19:46:57.572Z,13.87
2019-01-18T19:49:35.779Z,14.73
2019-01-18T19:52:30.360Z,16.00
2019-01-18T19:55:35.625Z,15.97
2019-01-18T19:58:41.153Z,13.50
2019-01-18T20:01:22.130Z,15.07
2019-01-18T20:04:03.091Z,14.50
2019-01-18T20:06:50.331Z,15.53
2019-01-18T20:09:31.496Z,17.67
2019-01-18T20:12:12.645Z,17.67
2019-01-18T20:14:50.936Z,17.10
2019-01-18T20:17:32.055Z,16.13
2019-01-18T20:20:34.260Z,14.27
2019-01-18T20:23:15.479Z,17.17
2019-01-18T20:25:53.785Z,15.97
2019-01-18T20:28:44.066Z,14.97
2019-01-18T20:31:19.404Z,29.00
2019-01-18T20:34:00.344Z,16.00
2019-01-18T20:36:38.581Z,17.30
2019-01-18T20:39:13.460Z,17.30
2019-01-18T20:42:02.182Z,17.20
2019-01-18T20:45:00.092Z,20.10
2019-01-18T20:47:59.440Z,21.37
2019-01-18T20:50:46.826Z,25.50
2019-01-18T20:53:19.159Z,29.30
2019-01-18T20:56:13.865Z,22.10
2019-01-18T20:58:54.862Z,35.63
2019-01-18T21:01:42.175Z,28.37
2019-01-18T21:04:35.455Z,22.87
2019-01-18T21:07:19.439Z,23.00
2019-01-18T21:10:03.415Z,21.37
2019-01-18T21:12:50.644Z,27.67
2019-01-18T21:15:31.895Z,26.40
2019-01-18T21:18:20.759Z,20.23
2019-01-18T21:21:15.619Z,16.70
2019-01-18T21:23:53.822Z,16.60
2019-01-18T21:26:34.854Z,16.20
2019-01-18T21:29:25.283Z,16.30
2019-01-18T21:32:12.528Z,16.80
2019-01-18T21:35:02.661Z,17.00
2019-01-18T21:37:41.065Z,18.33
2019-01-18T21:40:16.556Z,17.53
2019-01-18T21:43:07.671Z,17.10
2019-01-18T21:45:45.406Z,16.70
2019-01-18T21:48:44.546Z,17.20
2019-01-18T21:51:37.381Z,17.93
2019-01-18T21:54:18.195Z,21.30
2019-01-18T21:57:12.925Z,17.70
2019-01-18T21:59:48.244Z,16.17
2019-01-18T22:02:32.753Z,17.27
2019-01-18T22:05:10.632Z,16.57
2019-01-18T22:07:45.607Z,27.70
2019-01-18T22:10:17.949Z,25.63
2019-01-18T22:13:20.265Z,22.80
2019-01-18T22:15:52.575Z,29.00
2019-01-18T22:18:30.877Z,23.70
2019-01-18T22:21:21.075Z,23.10
2019-01-18T22:23:59.172Z,28.43
2019-01-18T22:26:31.539Z,28.03
2019-01-18T22:29:15.809Z,30.13
2019-01-18T22:32:04.790Z,24.10
2019-01-18T22:34:49.040Z,24.33
2019-01-18T22:37:36.457Z,27.80
2019-01-18T22:40:25.264Z,27.33
2019-01-18T22:42:57.676Z,29.70
2019-01-18T22:45:38.828Z,22.27
2019-01-18T22:48:11.145Z,18.50
2019-01-18T22:51:04.296Z,17.90
2019-01-18T22:53:45.519Z,14.37
2019-01-18T22:56:20.403Z,13.87
2019-01-18T22:58:58.645Z,13.00
2019-01-18T23:01:40.001Z,13.33
2019-01-18T23:04:23.981Z,11.07
2019-01-18T23:06:59.295Z,12.43
2019-01-18T23:09:37.633Z,11.83
2019-01-18T23:12:15.822Z,12.33
2019-01-18T23:15:21.203Z,14.87
2019-01-18T23:17:56.392Z,13.80
2019-01-18T23:20:47.874Z,12.40
2019-01-18T23:23:42.750Z,12.40
2019-01-18T23:26:26.827Z,12.00
2019-01-18T23:29:01.579Z,12.50
2019-01-18T23:31:48.671Z,12.70
2019-01-18T23:34:47.650Z,13.23
2019-01-18T23:37:25.932Z,13.47
2019-01-18T23:40:17.135Z,15.10
2019-01-18T23:42:52.311Z,14.13
2019-01-18T23:45:48.950Z,13.97
2019-01-18T23:48:40.266Z,13.80
2019-01-18T23:51:18.327Z,13.70
2019-01-18T23:53:59.283Z,12.27
2019-01-18T23:57:05.963Z,12.90
2019-01-18T23:59:54.478Z,11.83
